Нечаевка

Карта отелей и гостиниц, располагающихся рядом с аэропортом Нечаевка :



Нечаевка Белгородская область 50° 22' 4.8612" N, 36° 35' 43.8612" E
Код аэродрома ИКАО: 
ZB7G
Код аэродрома RU: 
ЗБ7Г
Координаты: 
N50.36802° E036.59552°
Превышение над уровнем моря : 
182
Основная полоса: 
11R/29L
Курс магнитный: 
107,5/287,5
Длина основной ВПП: 
420
Ширина основной ВПП: 
20
Покрытие основной ВПП: 
Твёрдое (асфальт)
Тип: 
Аэродром
Освещение ВПП: 
Нет
Класс аэродрома: 
Статус: 
Недействующий
Принадлежность: 
ГА
Сайт: 
https://vk.com/aviabel
E-mail аэродрома: 
info@aviabel.ru
Страна: 
Россия
Регион: 
Белгородская область
Город: 
Дополнительная информация: 
Бывшая площадка АХР. Поддерживается местными любителями малой авиации. Оператор по линии АОН: Клуб СЛА "Академия-Авиа".

Найти трансфер

С помощью этой формы Вы можете найти трансфер из аэропорта Нечаевка в город, аэропорт или вокзал:

Карта места

Javascript is required to view this map.

Погода в аэропортах:

Авиационная погода в Нижнекамске

Регион: 
Погода METAR: 
UWKE 042000Z 13008MPS 9999 -SHRA SCT016CB 17/15 Q1015 R21/210355 NOSIG RMK QFE744/0992
Время наблюдения: 
2020-06-04T20:00:00Z
Температура C: 
17.0
Точка росы: 
15.0
Направление ветра: 
130
Скорость ветра: 
16
Метеорологическая видимость: 
6.21
Явления погоды: 
-SHRA
Условия полета: 
VFR
Аэропорт подробнее: 

Авиационная погода в Савонлинна

Регион: 
Погода METAR: 
EFSA 041950Z AUTO 04012KT 3600 RA OVC006 11/11 Q1001 REDZ
Время наблюдения: 
2020-06-04T19:50:00Z
Температура C: 
11.0
Точка росы: 
11.0
Направление ветра: 
40
Скорость ветра: 
12
Метеорологическая видимость: 
2.24
Явления погоды: 
RA
Условия полета: 
IFR

Авиационная погода в Курске

Погода METAR: 
UUOK 041700Z 25009G14MPS 9999 -SHRA BKN033CB 13/08 Q1010 R12/CLRD65 NOSIG RMK QFE739/0986
Время наблюдения: 
2020-06-04T17:00:00Z
Температура C: 
13.0
Точка росы: 
8.0
Направление ветра: 
250
Скорость ветра: 
17
Метеорологическая видимость: 
6.21
Явления погоды: 
-SHRA
Условия полета: 
VFR
Аэропорт подробнее: 

Авиационная погода в Ульяновске

Регион: 
Погода METAR: 
UWLW 042000Z 17002MPS 2200 BR NSC 14/14 Q1013 R20/290250 TEMPO 0300 FG VV002 RMK QFE754
Время наблюдения: 
2020-06-04T20:00:00Z
Температура C: 
14.0
Точка росы: 
14.0
Направление ветра: 
170
Скорость ветра: 
4
Метеорологическая видимость: 
1.37
Явления погоды: 
BR
Условия полета: 
IFR